Time;durP1;ratioP1;P1;durP2;ratioP2;P2;SDS_P1;SDS_P2;PMS_P1;PMS_P2;Temp;Humidity;BMP_temperature;BMP_pressure;BME280_temperature;BME280_humidity;BME280_pressure;Samples;Min_cycle;Max_cycle;Signal;HPM_P1;HPM_P2
2024/04/18 00:00:47;;;;;;;2.08;1.30;;;6.40;99.90;;;;;;5546912;25;20008;-36
2024/04/18 00:03:13;;;;;;;1.40;1.30;;;6.50;99.90;;;;;;5524653;25;20000;-36
2024/04/18 00:05:38;;;;;;;1.45;1.35;;;6.40;99.90;;;;;;5547440;25;19997;-35
2024/04/18 00:08:04;;;;;;;2.25;1.42;;;6.50;99.90;;;;;;5522926;25;19997;-39
2024/04/18 00:10:30;;;;;;;1.30;1.20;;;6.40;99.90;;;;;;5547722;25;20000;-38
2024/04/18 00:12:55;;;;;;;1.55;1.33;;;6.40;99.90;;;;;;5526153;25;20039;-35
2024/04/18 00:15:24;;;;;;;1.55;1.30;;;6.40;99.90;;;;;;5517080;25;20016;-38
2024/04/18 00:17:50;;;;;;;2.15;1.60;;;6.40;99.90;;;;;;5526796;25;20004;-38
2024/04/18 00:20:18;;;;;;;3.15;1.70;;;6.40;99.90;;;;;;5484140;26;20015;-38
2024/04/18 00:22:44;;;;;;;1.55;1.45;;;6.40;99.90;;;;;;5521831;25;19997;-38
2024/04/18 00:25:10;;;;;;;1.85;1.75;;;6.40;99.90;;;;;;5520894;25;20082;-37
2024/04/18 00:27:35;;;;;;;1.30;1.13;;;6.40;99.90;;;;;;5517285;25;20482;-38
2024/04/18 00:30:01;;;;;;;1.33;1.23;;;6.40;99.90;;;;;;5524592;25;20449;-38
2024/04/18 00:32:27;;;;;;;1.30;1.20;;;6.40;99.90;;;;;;5510337;25;20016;-39
2024/04/18 00:34:52;;;;;;;1.92;1.25;;;6.40;99.90;;;;;;5529273;25;20014;-40
2024/04/18 00:37:18;;;;;;;1.75;1.33;;;6.40;99.90;;;;;;5508064;25;20016;-35
2024/04/18 00:39:43;;;;;;;1.33;1.23;;;6.40;99.90;;;;;;5526683;25;19994;-38
2024/04/18 00:42:09;;;;;;;1.70;1.27;;;6.40;99.90;;;;;;5505631;25;19998;-38
2024/04/18 00:44:42;;;;;;;1.58;1.30;;;6.40;99.90;;;;;;5528716;25;19997;-39
2024/04/18 00:47:15;;;;;;;1.50;1.40;;;6.40;99.90;;;;;;5506271;26;20366;-34
2024/04/18 00:49:41;;;;;;;1.40;1.30;;;6.40;99.90;;;;;;5527515;25;20439;-37
2024/04/18 00:52:10;;;;;;;2.00;1.48;;;6.30;99.90;;;;;;5505303;26;20001;-38
2024/04/18 00:54:36;;;;;;;1.35;1.25;;;6.30;99.90;;;;;;5528788;25;20008;-36
2024/04/18 00:57:02;;;;;;;1.50;1.30;;;6.30;99.90;;;;;;5503637;25;19993;-38
2024/04/18 00:59:27;;;;;;;1.55;1.45;;;6.30;99.90;;;;;;5526099;25;20046;-37
2024/04/18 01:01:56;;;;;;;2.38;1.38;;;6.30;99.90;;;;;;5509342;25;19994;-34
2024/04/18 01:04:22;;;;;;;1.60;1.50;;;6.30;99.90;;;;;;5521888;25;20005;-39
2024/04/18 01:06:48;;;;;;;1.48;1.38;;;6.20;99.90;;;;;;5515970;25;19994;-38
2024/04/18 01:09:15;;;;;;;1.67;1.55;;;6.20;99.90;;;;;;5519707;25;20011;-38
2024/04/18 01:11:40;;;;;;;2.33;1.60;;;6.20;99.90;;;;;;5518847;25;20033;-38
2024/04/18 01:14:10;;;;;;;1.63;1.40;;;6.20;99.90;;;;;;5517523;25;19997;-38
2024/04/18 01:16:35;;;;;;;2.40;1.40;;;6.10;99.90;;;;;;5520744;25;20869;-38
2024/04/18 01:19:01;;;;;;;1.70;1.60;;;6.10;99.90;;;;;;5511054;25;20054;-38
2024/04/18 01:21:26;;;;;;;1.65;1.30;;;6.10;99.90;;;;;;5528798;25;20013;-35
2024/04/18 01:23:52;;;;;;;1.98;1.42;;;6.00;99.90;;;;;;5510426;25;20069;-38
2024/04/18 01:26:18;;;;;;;4.32;1.50;;;6.00;99.90;;;;;;5528325;25;20594;-38
2024/04/18 01:28:44;;;;;;;1.33;1.10;;;6.00;99.90;;;;;;5506724;25;20303;-38
2024/04/18 01:31:10;;;;;;;2.60;1.35;;;5.90;99.90;;;;;;5530532;25;20526;-38
2024/04/18 01:33:35;;;;;;;3.88;1.40;;;5.90;99.90;;;;;;5504437;26;20015;-37
2024/04/18 01:36:10;;;;;;;2.22;1.30;;;5.90;99.90;;;;;;5527823;25;20001;-38
2024/04/18 01:38:38;;;;;;;2.28;1.40;;;5.80;99.90;;;;;;5504980;26;19994;-38
2024/04/18 01:41:13;;;;;;;1.55;1.38;;;5.80;99.90;;;;;;5528411;25;20098;-36
2024/04/18 01:43:39;;;;;;;1.30;1.17;;;5.80;99.90;;;;;;5504258;26;20094;-37
2024/04/18 01:46:10;;;;;;;1.30;1.20;;;5.80;99.90;;;;;;5525872;25;20016;-37
2024/04/18 01:48:36;;;;;;;1.27;1.15;;;5.70;99.90;;;;;;5508075;25;20002;-38
2024/04/18 01:51:08;;;;;;;1.95;1.10;;;5.70;99.90;;;;;;5526114;25;20024;-37
2024/04/18 01:53:33;;;;;;;4.43;1.23;;;5.60;99.90;;;;;;5511388;25;20522;-35
2024/04/18 01:55:59;;;;;;;1.60;1.10;;;5.70;99.90;;;;;;5522376;25;20558;-37
2024/04/18 01:58:24;;;;;;;1.42;0.85;;;5.60;99.90;;;;;;5516720;25;20001;-38
2024/04/18 02:00:50;;;;;;;0.75;0.75;;;5.60;99.90;;;;;;5516399;25;20007;-37
2024/04/18 02:03:18;;;;;;;1.20;1.10;;;5.60;99.90;;;;;;5522154;25;20037;-38
2024/04/18 02:05:44;;;;;;;1.10;1.00;;;5.50;99.90;;;;;;5516919;25;20001;-38
2024/04/18 02:08:10;;;;;;;2.55;1.30;;;5.50;99.90;;;;;;5528721;25;20017;-37
2024/04/18 02:10:35;;;;;;;2.70;1.20;;;5.50;99.90;;;;;;5514525;25;20027;-41
2024/04/18 02:13:01;;;;;;;1.73;0.90;;;5.40;99.90;;;;;;5530460;25;20435;-39
2024/04/18 02:15:27;;;;;;;2.88;1.10;;;5.40;99.90;;;;;;5532879;25;20015;-35
2024/04/18 02:17:52;;;;;;;1.45;1.23;;;5.40;99.90;;;;;;5525640;25;20001;-38
2024/04/18 02:20:19;;;;;;;1.25;1.15;;;5.40;99.90;;;;;;5546885;25;20032;-38
2024/04/18 02:22:48;;;;;;;1.77;1.00;;;5.40;99.90;;;;;;5522310;25;20057;-37
2024/04/18 02:25:14;;;;;;;2.33;1.10;;;5.40;99.90;;;;;;5546241;25;20001;-37
2024/04/18 02:27:44;;;;;;;1.50;1.20;;;5.30;99.90;;;;;;5521321;25;19993;-38
2024/04/18 02:30:10;;;;;;;0.90;0.90;;;5.40;99.90;;;;;;5545939;25;19997;-37
2024/04/18 02:32:37;;;;;;;1.45;1.20;;;5.30;99.90;;;;;;5524267;25;20005;-36
2024/04/18 02:35:03;;;;;;;1.50;1.10;;;5.30;99.90;;;;;;5543661;25;20013;-35
2024/04/18 02:37:29;;;;;;;2.53;1.10;;;5.30;99.90;;;;;;5529175;25;20001;-37
2024/04/18 02:39:55;;;;;;;1.45;1.20;;;5.20;99.90;;;;;;5539265;25;20008;-38
2024/04/18 02:42:20;;;;;;;1.95;1.23;;;5.20;99.90;;;;;;5534733;25;20454;-35
2024/04/18 02:44:46;;;;;;;2.38;1.40;;;5.10;99.90;;;;;;5537210;25;20032;-36
2024/04/18 02:47:12;;;;;;;2.58;1.92;;;5.10;99.90;;;;;;5541584;25;20001;-32
2024/04/18 02:49:38;;;;;;;1.30;1.20;;;5.10;99.90;;;;;;5531190;25;20827;-39
2024/04/18 02:52:04;;;;;;;4.95;1.58;;;5.10;99.90;;;;;;5544844;25;20025;-39
2024/04/18 02:54:30;;;;;;;1.85;1.50;;;5.00;99.90;;;;;;5523944;25;20004;-37
2024/04/18 02:56:56;;;;;;;1.60;1.50;;;5.00;99.90;;;;;;5542571;25;20069;-37
2024/04/18 02:59:21;;;;;;;1.95;1.30;;;4.90;99.90;;;;;;5525436;25;20048;-40
2024/04/18 03:01:47;;;;;;;1.85;1.63;;;4.90;99.90;;;;;;5546566;25;19996;-35
2024/04/18 03:04:13;;;;;;;1.52;1.40;;;4.90;99.90;;;;;;5530956;25;20009;-37
2024/04/18 03:06:38;;;;;;;1.40;1.30;;;4.90;99.90;;;;;;5508978;26;19997;-38
2024/04/18 03:09:04;;;;;;;1.77;1.42;;;4.90;99.90;;;;;;5534391;25;20572;-37
2024/04/18 03:11:29;;;;;;;1.90;1.52;;;4.90;99.90;;;;;;5511131;26;20008;-35
2024/04/18 03:13:55;;;;;;;1.67;1.30;;;4.90;99.90;;;;;;5529501;25;19993;-37
2024/04/18 03:16:21;;;;;;;1.48;1.38;;;4.80;99.90;;;;;;5510599;26;19997;-36
2024/04/18 03:18:46;;;;;;;2.47;1.50;;;4.80;99.90;;;;;;5524775;25;20299;-37
2024/04/18 03:21:12;;;;;;;2.58;1.40;;;4.80;99.90;;;;;;5518417;25;19997;-38
2024/04/18 03:23:38;;;;;;;1.73;1.55;;;4.70;99.90;;;;;;5518894;25;20029;-37
2024/04/18 03:26:04;;;;;;;2.13;1.50;;;4.70;99.90;;;;;;5521158;25;19993;-38
2024/04/18 03:28:29;;;;;;;2.33;1.55;;;4.70;99.90;;;;;;5512724;25;20598;-39
2024/04/18 03:30:55;;;;;;;2.33;1.50;;;4.70;99.90;;;;;;5525604;25;20119;-36
2024/04/18 03:33:21;;;;;;;2.70;1.80;;;4.60;99.90;;;;;;5510650;25;20329;-40
2024/04/18 03:35:46;;;;;;;2.05;1.45;;;4.60;99.90;;;;;;5528521;25;20547;-38
2024/04/18 03:38:12;;;;;;;2.05;1.40;;;4.60;99.90;;;;;;5511031;25;20865;-36
2024/04/18 03:40:38;;;;;;;2.10;1.70;;;4.60;99.90;;;;;;5531779;25;19997;-39
2024/04/18 03:43:04;;;;;;;1.98;1.60;;;4.50;99.90;;;;;;5510635;25;20404;-38
2024/04/18 03:45:30;;;;;;;2.97;1.55;;;4.50;99.90;;;;;;5532894;25;19996;-35
2024/04/18 03:47:56;;;;;;;2.45;1.58;;;4.50;99.90;;;;;;5510991;25;20005;-37
2024/04/18 03:50:22;;;;;;;1.98;1.63;;;4.50;99.90;;;;;;5533138;25;20470;-35
2024/04/18 03:52:47;;;;;;;4.80;1.60;;;4.40;99.90;;;;;;5509312;26;20005;-38
2024/04/18 03:55:13;;;;;;;2.30;1.33;;;4.40;99.90;;;;;;5529821;25;20004;-37
2024/04/18 03:57:38;;;;;;;1.88;1.30;;;4.40;99.90;;;;;;5514721;25;20001;-36
2024/04/18 04:00:04;;;;;;;3.55;1.60;;;4.30;99.90;;;;;;5523780;25;20089;-36
2024/04/18 04:02:32;;;;;;;2.00;1.58;;;4.30;99.90;;;;;;5519350;25;20001;-35
2024/04/18 04:04:58;;;;;;;1.98;1.60;;;4.30;99.90;;;;;;5519240;25;20012;-36
2024/04/18 04:07:24;;;;;;;2.35;1.75;;;4.30;99.90;;;;;;5523603;25;20077;-37
2024/04/18 04:09:49;;;;;;;2.95;1.95;;;4.30;99.90;;;;;;5513962;25;20840;-37
2024/04/18 04:12:15;;;;;;;2.58;1.85;;;4.30;99.90;;;;;;5528921;25;20345;-37
2024/04/18 04:14:41;;;;;;;2.72;2.10;;;4.20;99.90;;;;;;5517086;25;20337;-37
2024/04/18 04:17:08;;;;;;;2.60;1.92;;;4.20;99.90;;;;;;5524855;25;20839;-38
2024/04/18 04:19:37;;;;;;;4.07;1.65;;;4.20;99.90;;;;;;5541805;25;20558;-38
2024/04/18 04:22:02;;;;;;;2.33;1.85;;;4.20;99.90;;;;;;5520816;25;20712;-39
2024/04/18 04:24:28;;;;;;;5.40;2.45;;;4.20;99.90;;;;;;5506789;26;20012;-38
2024/04/18 04:26:54;;;;;;;3.67;2.20;;;4.10;99.90;;;;;;5528938;25;20976;-39
2024/04/18 04:29:26;;;;;;;2.35;2.00;;;4.10;99.90;;;;;;5506824;26;19997;-39
2024/04/18 04:31:51;;;;;;;2.60;1.98;;;4.10;99.90;;;;;;5529531;25;19993;-38
2024/04/18 04:34:17;;;;;;;2.67;1.80;;;4.10;99.90;;;;;;5507998;26;20004;-39
2024/04/18 04:36:42;;;;;;;2.03;1.83;;;4.10;99.90;;;;;;5529179;25;20040;-35
2024/04/18 04:39:08;;;;;;;2.17;1.73;;;4.00;99.90;;;;;;5511792;25;20064;-38
2024/04/18 04:41:34;;;;;;;2.85;1.83;;;4.10;99.90;;;;;;5523590;25;20945;-37
2024/04/18 04:43:59;;;;;;;2.38;1.92;;;4.00;99.90;;;;;;5517232;25;19997;-35
2024/04/18 04:46:25;;;;;;;2.60;1.90;;;4.00;99.90;;;;;;5519035;25;20080;-37
2024/04/18 04:48:51;;;;;;;3.05;2.03;;;4.10;99.90;;;;;;5521070;25;20006;-36
2024/04/18 04:51:16;;;;;;;4.85;2.28;;;4.10;99.90;;;;;;5515046;25;20586;-38
2024/04/18 04:53:45;;;;;;;3.20;2.00;;;4.10;99.90;;;;;;5526284;25;20508;-38
2024/04/18 04:56:10;;;;;;;3.60;2.20;;;4.00;99.90;;;;;;5508222;25;20448;-37
2024/04/18 04:58:36;;;;;;;4.03;1.88;;;4.00;99.90;;;;;;5526791;25;20075;-36
2024/04/18 05:01:01;;;;;;;2.53;2.00;;;4.00;99.90;;;;;;5508401;25;20461;-35
2024/04/18 05:03:27;;;;;;;4.43;1.92;;;4.00;99.90;;;;;;5526661;25;20475;-32
2024/04/18 05:05:52;;;;;;;2.45;2.20;;;4.10;99.90;;;;;;5505524;26;19998;-35
2024/04/18 05:08:18;;;;;;;3.30;2.00;;;4.00;99.90;;;;;;5529095;25;20638;-38
2024/04/18 05:10:44;;;;;;;2.22;2.00;;;4.10;99.90;;;;;;5507664;25;20001;-38
2024/04/18 05:13:15;;;;;;;2.05;1.85;;;4.10;99.90;;;;;;5530356;25;20009;-39
2024/04/18 05:15:40;;;;;;;3.38;2.03;;;4.10;99.90;;;;;;5531576;25;20090;-38
2024/04/18 05:18:09;;;;;;;3.45;1.90;;;4.10;99.90;;;;;;5522368;25;20029;-36
2024/04/18 05:20:38;;;;;;;4.85;2.38;;;4.10;99.90;;;;;;5540944;25;19997;-38
2024/04/18 05:23:06;;;;;;;2.47;2.28;;;4.10;99.90;;;;;;5524397;25;20008;-36
2024/04/18 05:25:32;;;;;;;2.47;2.20;;;4.20;99.90;;;;;;5536420;25;19992;-36
2024/04/18 05:28:10;;;;;;;4.90;2.25;;;4.20;99.90;;;;;;5529299;25;20015;-37
2024/04/18 05:33:24;;;;;;;2.80;2.15;;;4.20;99.90;;;;;;5528029;25;20073;-37
2024/04/18 05:35:50;;;;;;;2.78;1.90;;;4.20;99.90;;;;;;5538780;25;20001;-37
2024/04/18 05:38:16;;;;;;;3.58;2.20;;;4.30;99.90;;;;;;5530449;25;19994;-35
2024/04/18 05:40:41;;;;;;;2.58;1.98;;;4.40;99.90;;;;;;5536637;25;20007;-38
2024/04/18 05:43:07;;;;;;;1.83;1.48;;;4.40;99.90;;;;;;5540046;25;20493;-39
2024/04/18 05:45:32;;;;;;;1.73;1.63;;;4.50;99.90;;;;;;5531511;25;20444;-37
2024/04/18 05:47:58;;;;;;;2.75;1.92;;;4.50;99.90;;;;;;5545584;25;20005;-38
2024/04/18 05:50:27;;;;;;;2.05;1.75;;;4.50;99.90;;;;;;5527580;25;19997;-34
2024/04/18 05:52:53;;;;;;;2.95;1.92;;;4.60;99.90;;;;;;5531195;25;20046;-37
2024/04/18 05:55:19;;;;;;;3.17;2.03;;;4.70;99.90;;;;;;5532271;25;20009;-39
2024/04/18 05:57:44;;;;;;;3.03;1.60;;;4.70;99.90;;;;;;5510695;25;20009;-37
2024/04/18 06:00:14;;;;;;;3.15;2.13;;;4.80;99.90;;;;;;5532254;25;20999;-38
2024/04/18 06:02:43;;;;;;;2.08;1.80;;;4.80;99.90;;;;;;5510709;25;20006;-38
2024/04/18 06:05:08;;;;;;;2.90;1.85;;;4.90;99.90;;;;;;5533757;25;20088;-39
2024/04/18 06:07:34;;;;;;;3.47;2.13;;;5.00;99.90;;;;;;5508974;26;20350;-34
2024/04/18 06:10:00;;;;;;;2.13;1.88;;;5.00;99.90;;;;;;5533358;25;20004;-37
2024/04/18 06:12:25;;;;;;;4.20;2.47;;;5.10;99.90;;;;;;5508568;25;20009;-36
2024/04/18 06:14:54;;;;;;;3.42;2.10;;;5.10;99.90;;;;;;5513894;25;19993;-36
2024/04/18 06:17:19;;;;;;;2.92;2.00;;;5.20;99.90;;;;;;5508437;26;20391;-34
2024/04/18 06:19:49;;;;;;;4.03;2.08;;;5.30;99.90;;;;;;5519938;25;20017;-37
2024/04/18 06:22:14;;;;;;;3.15;1.92;;;5.30;99.90;;;;;;5540509;25;20001;-34
2024/04/18 06:24:41;;;;;;;3.60;1.95;;;5.30;99.90;;;;;;5538347;25;20851;-37
2024/04/18 06:27:07;;;;;;;3.00;1.75;;;5.40;99.90;;;;;;5536374;25;20083;-37
2024/04/18 06:29:33;;;;;;;1.83;1.40;;;5.40;99.90;;;;;;5543781;25;20008;-38
2024/04/18 06:31:58;;;;;;;2.05;1.50;;;5.50;99.90;;;;;;5530841;25;20011;-38
2024/04/18 06:34:26;;;;;;;1.42;1.30;;;5.60;99.90;;;;;;5545838;25;20012;-38
2024/04/18 06:36:53;;;;;;;1.40;1.30;;;5.60;99.90;;;;;;5520569;25;20009;-37
2024/04/18 06:39:19;;;;;;;2.10;1.30;;;5.60;99.90;;;;;;5514174;25;20453;-37
2024/04/18 06:41:44;;;;;;;4.25;1.65;;;5.70;99.90;;;;;;5532641;25;20028;-38
2024/04/18 06:44:10;;;;;;;2.53;1.60;;;5.70;99.90;;;;;;5512231;25;20070;-38
2024/04/18 06:46:36;;;;;;;2.97;1.90;;;5.80;99.90;;;;;;5534481;25;19997;-39
2024/04/18 06:49:01;;;;;;;1.90;1.00;;;5.80;99.90;;;;;;5509774;26;20068;-36
2024/04/18 06:51:27;;;;;;;1.98;1.30;;;5.90;99.90;;;;;;5532854;25;20105;-38
2024/04/18 06:53:52;;;;;;;1.50;1.30;;;5.90;99.90;;;;;;5511082;25;20001;-37
2024/04/18 06:56:18;;;;;;;4.03;1.50;;;6.00;99.90;;;;;;5529573;25;20009;-38
2024/04/18 06:58:44;;;;;;;2.28;1.20;;;6.10;99.90;;;;;;5511436;25;19993;-38
2024/04/18 07:01:09;;;;;;;2.20;1.30;;;6.20;99.90;;;;;;5522542;25;20001;-39
2024/04/18 07:03:35;;;;;;;2.15;1.35;;;6.20;99.90;;;;;;5515413;25;20815;-37
2024/04/18 07:06:03;;;;;;;2.50;1.10;;;6.30;99.90;;;;;;5517032;25;20038;-37
2024/04/18 07:08:29;;;;;;;2.28;1.20;;;6.40;99.90;;;;;;5517947;25;20556;-37
2024/04/18 07:10:59;;;;;;;2.50;1.20;;;6.40;99.90;;;;;;5509728;25;20085;-36
2024/04/18 07:13:24;;;;;;;2.13;1.55;;;6.40;99.90;;;;;;5524078;25;20007;-37
2024/04/18 07:15:50;;;;;;;2.20;1.30;;;6.50;99.90;;;;;;5529143;25;20005;-38
2024/04/18 07:18:15;;;;;;;1.95;1.13;;;6.60;99.90;;;;;;5523837;25;20451;-38
2024/04/18 07:20:41;;;;;;;2.40;1.52;;;6.70;99.90;;;;;;5540362;25;20004;-36
2024/04/18 07:23:07;;;;;;;3.78;1.60;;;6.80;99.90;;;;;;5524623;25;20467;-38
2024/04/18 07:25:32;;;;;;;2.03;1.42;;;6.80;99.90;;;;;;5547381;25;19993;-35
2024/04/18 07:27:58;;;;;;;3.15;1.30;;;6.90;99.90;;;;;;5523411;25;20001;-36
2024/04/18 07:30:24;;;;;;;4.10;1.85;;;6.90;99.90;;;;;;5547668;25;19997;-37
2024/04/18 07:32:51;;;;;;;2.92;1.85;;;7.00;99.90;;;;;;5523089;25;20077;-38
2024/04/18 07:35:16;;;;;;;3.15;1.75;;;7.00;99.90;;;;;;5548125;25;19993;-38
2024/04/18 07:37:42;;;;;;;3.20;1.42;;;7.10;99.90;;;;;;5526546;25;19997;-37
2024/04/18 07:40:12;;;;;;;1.55;1.20;;;7.10;99.90;;;;;;5543985;25;20000;-37
2024/04/18 07:42:38;;;;;;;2.55;1.60;;;7.20;99.90;;;;;;5530795;25;20021;-37
2024/04/18 07:45:04;;;;;;;3.22;1.70;;;7.20;99.90;;;;;;5538969;25;20007;-36
2024/04/18 07:47:29;;;;;;;3.10;1.83;;;7.30;99.90;;;;;;5535238;25;19993;-38
2024/04/18 07:49:55;;;;;;;2.67;2.13;;;7.40;99.90;;;;;;5534783;25;19992;-38
2024/04/18 07:52:20;;;;;;;4.28;1.52;;;7.40;99.90;;;;;;5539961;25;20001;-38
2024/04/18 07:55:30;;;;;;;3.03;1.42;;;7.50;99.90;;;;;;5529962;25;20083;-37
2024/04/18 07:57:35;;;;;;;2.38;1.70;;;7.60;99.90;;;;;;5528779;25;19993;-39
2024/04/18 08:00:03;;;;;;;1.95;1.40;;;7.70;99.90;;;;;;5528899;25;19993;-37
2024/04/18 08:02:29;;;;;;;3.47;1.45;;;7.70;99.90;;;;;;5541926;25;20057;-38
2024/04/18 08:04:54;;;;;;;2.63;1.08;;;7.70;99.90;;;;;;5524129;25;20000;-38
2024/04/18 08:07:20;;;;;;;2.42;1.08;;;7.70;99.90;;;;;;5541218;25;20581;-38
2024/04/18 08:09:46;;;;;;;1.45;1.20;;;7.80;99.90;;;;;;5523514;25;20011;-38
2024/04/18 08:12:14;;;;;;;2.25;1.17;;;7.80;99.90;;;;;;5543941;25;20081;-37
2024/04/18 08:14:40;;;;;;;3.08;1.60;;;7.90;99.90;;;;;;5515548;25;20049;-36
2024/04/18 08:17:08;;;;;;;2.55;0.90;;;8.00;99.90;;;;;;5507691;25;20005;-37
2024/04/18 08:19:34;;;;;;;5.20;1.50;;;8.10;99.90;;;;;;5533231;25;19997;-38
2024/04/18 08:21:59;;;;;;;3.63;1.20;;;8.20;99.90;;;;;;5510250;26;19998;-38
2024/04/18 08:24:27;;;;;;;2.47;0.90;;;8.20;99.90;;;;;;5529512;25;20548;-39
2024/04/18 08:26:54;;;;;;;1.55;1.00;;;8.40;99.90;;;;;;5509317;25;20002;-39
2024/04/18 08:29:22;;;;;;;1.17;0.82;;;8.40;99.90;;;;;;5527146;25;20081;-37
2024/04/18 08:31:51;;;;;;;1.38;0.82;;;8.50;99.90;;;;;;5513569;25;20016;-39
2024/04/18 08:34:17;;;;;;;3.20;0.93;;;8.60;99.90;;;;;;5523962;25;20016;-37
2024/04/18 08:36:43;;;;;;;3.28;1.50;;;8.60;99.90;;;;;;5517318;25;19997;-39
2024/04/18 08:39:08;;;;;;;3.55;1.10;;;8.60;99.90;;;;;;5518806;25;20001;-37
2024/04/18 08:41:34;;;;;;;2.28;1.30;;;8.60;99.90;;;;;;5521343;25;20551;-37
2024/04/18 08:44:03;;;;;;;1.67;0.80;;;8.60;99.90;;;;;;5513734;25;19997;-37
2024/04/18 08:46:32;;;;;;;1.35;0.80;;;8.70;99.90;;;;;;5526546;25;20329;-33
2024/04/18 08:48:59;;;;;;;1.27;0.93;;;8.80;99.90;;;;;;5511064;25;20009;-33
2024/04/18 08:51:26;;;;;;;1.42;0.70;;;9.00;99.90;;;;;;5504264;25;20012;-37
2024/04/18 08:53:57;;;;;;;2.17;1.00;;;9.20;99.90;;;;;;5542231;25;20638;-36
2024/04/18 08:56:24;;;;;;;1.92;0.98;;;9.30;99.90;;;;;;5522544;25;20916;-37
2024/04/18 08:58:50;;;;;;;1.55;0.90;;;9.30;99.90;;;;;;5541103;25;20408;-37
2024/04/18 09:01:16;;;;;;;1.42;0.73;;;9.30;99.90;;;;;;5519321;25;20455;-37
2024/04/18 09:03:42;;;;;;;3.10;0.85;;;9.30;99.90;;;;;;5540326;25;20553;-35
2024/04/18 09:06:11;;;;;;;1.73;0.63;;;9.30;99.90;;;;;;5516635;25;19998;-38
2024/04/18 09:08:37;;;;;;;0.88;0.70;;;9.30;99.90;;;;;;5540412;25;20004;-36
2024/04/18 09:11:04;;;;;;;2.00;0.80;;;9.30;99.90;;;;;;5517003;25;20471;-38
2024/04/18 09:13:34;;;;;;;0.60;0.60;;;9.30;99.90;;;;;;5541865;25;19997;-38
2024/04/18 09:15:59;;;;;;;0.50;0.50;;;9.30;99.90;;;;;;5525801;25;20033;-38
2024/04/18 09:18:26;;;;;;;1.50;0.80;;;9.40;99.90;;;;;;5550552;25;20001;-38
2024/04/18 09:20:52;;;;;;;1.33;0.70;;;9.40;99.90;;;;;;5534709;25;20066;-38
2024/04/18 09:23:17;;;;;;;2.45;0.85;;;9.50;99.90;;;;;;5542875;25;20900;-36
2024/04/18 09:25:43;;;;;;;1.52;0.60;;;9.70;99.90;;;;;;5539678;25;20844;-36
2024/04/18 09:28:09;;;;;;;0.55;0.45;;;9.70;99.90;;;;;;5536915;25;19993;-36
2024/04/18 09:30:37;;;;;;;1.98;0.70;;;9.80;99.90;;;;;;5543663;25;20003;-37
2024/04/18 09:33:03;;;;;;;1.20;0.63;;;9.80;99.90;;;;;;5532628;25;20012;-36
2024/04/18 09:35:31;;;;;;;1.52;0.60;;;9.80;99.90;;;;;;5546612;25;20008;-37
2024/04/18 09:37:57;;;;;;;1.52;0.50;;;9.90;99.90;;;;;;5526811;25;20008;-38
2024/04/18 09:40:26;;;;;;;1.25;0.60;;;9.90;99.90;;;;;;5543432;25;20012;-38
2024/04/18 09:43:03;;;;;;;0.80;0.32;;;10.00;99.90;;;;;;5525841;25;19997;-39
2024/04/18 09:45:47;;;;;;;4.15;1.08;;;10.10;99.90;;;;;;5543374;25;20000;-37
2024/04/18 09:48:13;;;;;;;3.80;1.10;;;10.30;99.90;;;;;;5525136;25;20569;-35
2024/04/18 09:50:40;;;;;;;2.70;1.52;;;10.30;99.90;;;;;;5543327;25;20000;-36
2024/04/18 09:53:07;;;;;;;1.55;0.90;;;10.30;99.90;;;;;;5526775;25;20105;-38
2024/04/18 09:55:33;;;;;;;1.15;0.88;;;10.20;99.90;;;;;;5547013;25;20008;-38
2024/04/18 09:57:59;;;;;;;1.30;0.73;;;10.20;99.90;;;;;;5522010;25;20001;-39
2024/04/18 10:00:25;;;;;;;1.58;0.73;;;10.20;99.90;;;;;;5546768;25;20088;-37
2024/04/18 10:02:53;;;;;;;1.05;0.60;;;10.10;99.90;;;;;;5521568;25;20037;-35
2024/04/18 10:05:19;;;;;;;1.13;0.70;;;10.10;99.90;;;;;;5545786;25;20001;-38
2024/04/18 10:07:46;;;;;;;1.42;0.70;;;10.10;99.90;;;;;;5526258;25;20004;-36
2024/04/18 10:10:13;;;;;;;3.15;0.77;;;10.10;99.90;;;;;;5545755;25;19997;-37
2024/04/18 10:12:41;;;;;;;2.10;0.70;;;10.00;99.90;;;;;;5532299;25;20001;-38
2024/04/18 10:15:07;;;;;;;2.60;0.82;;;9.90;99.90;;;;;;5533002;25;20280;-33
2024/04/18 10:17:33;;;;;;;1.50;0.50;;;9.90;99.90;;;;;;5523035;25;19993;-38
2024/04/18 10:20:04;;;;;;;1.33;0.50;;;9.90;99.90;;;;;;5521886;25;20028;-38
2024/04/18 10:22:30;;;;;;;1.40;0.60;;;9.90;99.90;;;;;;5519266;25;20004;-37
2024/04/18 10:24:56;;;;;;;1.33;0.60;;;10.10;99.90;;;;;;5524499;25;19993;-38
2024/04/18 10:27:22;;;;;;;1.95;0.60;;;10.20;99.90;;;;;;5514501;25;20336;-38
2024/04/18 10:29:58;;;;;;;0.57;0.40;;;10.40;99.90;;;;;;5530848;25;19997;-37
2024/04/18 10:32:29;;;;;;;0.95;0.55;;;10.50;99.90;;;;;;5514356;25;20336;-38
2024/04/18 10:34:54;;;;;;;2.30;0.70;;;10.50;99.90;;;;;;5507625;25;20048;-36
2024/04/18 10:37:21;;;;;;;1.65;0.50;;;10.60;99.90;;;;;;5545369;25;20465;-38
2024/04/18 10:39:51;;;;;;;1.00;0.47;;;10.60;99.90;;;;;;5527667;25;19997;-38
2024/04/18 10:42:22;;;;;;;1.35;0.40;;;10.60;99.90;;;;;;5546792;25;20096;-37
2024/04/18 10:44:48;;;;;;;2.25;0.75;;;10.60;99.90;;;;;;5527625;25;20009;-34
2024/04/18 10:47:14;;;;;;;1.00;0.60;;;10.60;99.90;;;;;;5548221;25;20756;-32
2024/04/18 10:49:40;;;;;;;3.33;0.65;;;10.60;99.90;;;;;;5524058;25;20020;-38
2024/04/18 10:52:10;;;;;;;1.33;0.60;;;10.60;99.90;;;;;;5544973;25;20778;-37
2024/04/18 10:54:37;;;;;;;1.58;0.73;;;10.60;99.90;;;;;;5520959;25;20073;-39
2024/04/18 10:57:02;;;;;;;2.35;0.68;;;10.60;99.90;;;;;;5545226;25;20083;-38
2024/04/18 10:59:38;;;;;;;0.77;0.40;;;10.50;99.90;;;;;;5525176;25;20009;-38
2024/04/18 11:02:08;;;;;;;0.77;0.30;;;10.50;99.90;;;;;;5543209;25;20008;-38
2024/04/18 11:04:34;;;;;;;1.17;0.50;;;10.50;99.90;;;;;;5523951;25;20089;-38
2024/04/18 11:07:00;;;;;;;1.67;0.60;;;10.70;99.90;;;;;;5541385;25;20005;-35
2024/04/18 11:09:26;;;;;;;1.15;0.40;;;10.90;99.90;;;;;;5530779;25;20008;-40
2024/04/18 11:11:52;;;;;;;2.45;0.57;;;11.00;99.90;;;;;;5536059;25;20000;-39
2024/04/18 11:14:21;;;;;;;1.77;0.63;;;11.30;99.90;;;;;;5535110;25;20114;-37
2024/04/18 11:16:54;;;;;;;1.75;0.55;;;11.40;98.30;;;;;;5542475;25;20602;-36
2024/04/18 11:19:20;;;;;;;3.28;0.73;;;11.50;98.80;;;;;;5540510;25;20012;-36
2024/04/18 11:21:47;;;;;;;0.98;0.60;;;11.50;99.00;;;;;;5533256;25;20321;-35
2024/04/18 11:24:13;;;;;;;1.48;0.50;;;11.50;98.70;;;;;;5544864;25;20328;-37
2024/04/18 11:26:40;;;;;;;1.55;0.35;;;11.50;99.20;;;;;;5527245;25;20452;-37
2024/04/18 11:29:07;;;;;;;1.73;0.50;;;11.70;99.70;;;;;;5544817;25;20005;-37
2024/04/18 11:31:32;;;;;;;2.28;0.57;;;11.80;99.80;;;;;;5526589;25;19997;-39
2024/04/18 11:33:58;;;;;;;0.80;0.40;;;11.80;99.00;;;;;;5546544;25;20353;-38
2024/04/18 11:36:25;;;;;;;2.10;0.70;;;11.90;99.00;;;;;;5523865;25;20005;-37
2024/04/18 11:38:50;;;;;;;1.25;0.60;;;11.90;98.10;;;;;;5547077;25;19993;-39
2024/04/18 11:41:17;;;;;;;1.83;0.70;;;11.90;96.90;;;;;;5524046;25;19998;-39
2024/04/18 11:43:46;;;;;;;1.60;0.60;;;11.80;96.50;;;;;;5547227;25;20001;-37
2024/04/18 11:46:12;;;;;;;1.17;0.40;;;11.70;96.80;;;;;;5523510;25;19994;-36
2024/04/18 11:48:37;;;;;;;2.83;0.85;;;11.70;97.60;;;;;;5544574;25;20015;-35
2024/04/18 11:51:03;;;;;;;5.03;1.23;;;11.70;97.40;;;;;;5525965;25;20069;-38
2024/04/18 11:53:29;;;;;;;2.38;0.70;;;11.80;96.70;;;;;;5539958;25;20890;-37
2024/04/18 11:55:55;;;;;;;1.05;0.50;;;11.70;97.20;;;;;;5531091;25;20004;-37
2024/04/18 11:58:21;;;;;;;1.98;0.60;;;11.80;97.10;;;;;;5534067;25;20011;-36
2024/04/18 12:00:46;;;;;;;2.20;0.70;;;11.80;97.10;;;;;;5536245;25;19997;-38
2024/04/18 12:03:12;;;;;;;2.60;0.40;;;11.90;96.90;;;;;;5532196;25;20763;-38
2024/04/18 12:05:37;;;;;;;2.10;0.50;;;12.00;96.40;;;;;;5542886;25;20020;-38
2024/04/18 12:08:05;;;;;;;1.90;0.52;;;12.10;95.80;;;;;;5527206;25;20016;-37
2024/04/18 12:10:31;;;;;;;0.93;0.50;;;12.20;96.20;;;;;;5545400;25;20008;-37
2024/04/18 12:12:57;;;;;;;0.90;0.40;;;12.30;96.20;;;;;;5525664;25;19992;-36
2024/04/18 12:15:22;;;;;;;1.08;0.47;;;12.30;95.30;;;;;;5538455;25;20046;-38
2024/04/18 12:17:48;;;;;;;1.50;0.80;;;12.40;95.70;;;;;;5532095;25;19997;-37
2024/04/18 12:20:14;;;;;;;1.50;0.30;;;12.40;96.00;;;;;;5510063;25;20013;-36
2024/04/18 12:22:39;;;;;;;1.52;0.68;;;12.40;95.30;;;;;;5532757;25;20297;-37
2024/04/18 12:25:05;;;;;;;1.25;0.40;;;12.30;95.90;;;;;;5509883;26;20578;-36
2024/04/18 12:27:31;;;;;;;1.13;0.50;;;12.30;95.30;;;;;;5531319;25;20101;-34
2024/04/18 12:29:56;;;;;;;0.95;0.40;;;12.30;95.20;;;;;;5510997;25;19997;-37
2024/04/18 12:32:22;;;;;;;0.88;0.50;;;12.30;95.40;;;;;;5526066;25;20384;-35
2024/04/18 12:34:51;;;;;;;2.40;0.50;;;12.40;95.50;;;;;;5515914;25;20974;-37
2024/04/18 12:37:20;;;;;;;2.85;1.05;;;12.50;93.50;;;;;;5522975;25;20004;-37
2024/04/18 12:39:48;;;;;;;1.88;0.50;;;12.50;93.00;;;;;;5518326;25;20150;-37
2024/04/18 12:42:14;;;;;;;2.35;0.57;;;12.40;93.50;;;;;;5517706;25;20003;-38
2024/04/18 12:44:39;;;;;;;1.52;0.50;;;12.40;92.50;;;;;;5520287;25;19997;-37
2024/04/18 12:47:05;;;;;;;1.63;0.45;;;12.30;93.10;;;;;;5510502;25;20869;-37
2024/04/18 12:49:31;;;;;;;1.70;0.68;;;12.30;93.40;;;;;;5523668;25;20413;-36
2024/04/18 12:51:56;;;;;;;3.17;0.80;;;12.30;92.40;;;;;;5508700;25;20700;-38
2024/04/18 12:54:25;;;;;;;2.85;1.00;;;12.20;92.50;;;;;;5525994;25;19993;-38